Golden Beach, Florida
Current Conditions -  °F | °C
As of 4:53 PM on Monday 26 Jan 2015 (Local Time) from KHWO Reporting Station
Clear Clear  
Wind Chill: 71°   Ceiling: Unl
Heat Index: 71°   Visibility: 10mi
Dew Point: 45°   Wind: 21mph
Humidity: 39%   Direction: 270°W
Pressure: 29.88"   Gusts: 32mph
Location:  25.9339°N, 80.1467°W
Report Text: KHWO 262153Z 27018G28KT 10SM CLR 22/07 A2988 RMK AO2 PK WND 26029/2105 SLP119 T02170072
Loading
Personal Weather Stations






























Interactive Weather Map New forecast layout! Learn more

10-Day Weather Forecast

Advertisements
Track Severe Weather on mobile